Ken Orchid — A8VZ2 — position and weather

sailwx.info

Track history (hours):
 
Tides and Currents Weather Stations Pressure Air Temp Water Temp Dewpoint Dewpoint Depression Visibility Wind Speed Wind Dir Waves Ship Positions

Ken Orchid

Last reported at 2016-Jun-04 22:06 UTC. Time now 2016-Jun-29 07:29 UTC.
Position N 01°16' E 104°12'.
Warning: this ship's position is 24 days out of date.

Length 169 m; draft 10 m.

Type: Ship. MMSI: 636014693.

Date/timePositionNaut miles runAvg speedWind from/ knotsBaromVisibWave heightAir tempDewpointWater temp
2016-Jun-04 22:06N 01°16' E 104°12'814.3
2016-Jun-04 21:33N 01°15' E 104°05'9 9.1
2016-Jun-04 20:33N 01°14' E 103°56'3 2.8
2016-Jun-04 19:23N 01°17' E 103°54'0 0.1
2016-Jun-04 18:33N 01°17' E 103°54'0 0.1
2016-Jun-04 17:33N 01°17' E 103°54'0 0.0
2016-Jun-04 16:09N 01°17' E 103°54'0 0.0
2016-Jun-04 15:33N 01°17' E 103°54'0 0.2
2016-Jun-04 14:30N 01°17' E 103°54'0 0.0
2016-Jun-04 13:18N 01°17' E 103°54'0 0.0
2016-Jun-04 11:27N 01°17' E 103°54'0 0.1
2016-Jun-04 10:14N 01°17' E 103°54'0 0.1
2016-Jun-04 09:30N 01°17' E 103°54'0 0.1
2016-Jun-04 08:33N 01°17' E 103°54'3 3.3
2016-Jun-04 07:33N 01°13' E 103°54'4 4.0
2016-Jun-04 06:30N 01°11' E 103°50'5 4.9
2016-Jun-04 05:33N 01°08' E 103°46'6711.2
2016-Jun-03 23:32N 01°39' E 102°46'1414.5
2016-Jun-03 22:33N 01°45' E 102°33'1613.9
2016-Jun-03 21:24N 01°51' E 102°19'2613.0
2016-Jun-03 19:23N 02°08' E 101°58'1412.1
2016-Jun-03 18:14N 02°17' E 101°48'  
Track history (hours):
 
Tides and Currents Weather Stations Pressure Air Temp Water Temp Dewpoint Dewpoint Depression Visibility Wind Speed Wind Dir Waves Ship Positions

Ken Orchid

Last reported at 2016-Jun-04 22:06 UTC. Time now 2016-Jun-29 07:29 UTC.
Position N 01°16' E 104°12'.
Warning: this ship's position is 24 days out of date.

Length 169 m; draft 10 m.

Type: Ship. MMSI: 636014693.

Date/timePositionNaut miles runAvg speedWind from/ knotsBaromVisibWave heightAir tempDewpointWater temp
2016-Jun-04 22:06N 01°16' E 104°12'814.3
2016-Jun-04 21:33N 01°15' E 104°05'9 9.1
2016-Jun-04 20:33N 01°14' E 103°56'3 2.8
2016-Jun-04 19:23N 01°17' E 103°54'0 0.1
2016-Jun-04 18:33N 01°17' E 103°54'0 0.1
2016-Jun-04 17:33N 01°17' E 103°54'0 0.0
2016-Jun-04 16:09N 01°17' E 103°54'0 0.0
2016-Jun-04 15:33N 01°17' E 103°54'0 0.2
2016-Jun-04 14:30N 01°17' E 103°54'0 0.0
2016-Jun-04 13:18N 01°17' E 103°54'0 0.0
2016-Jun-04 11:27N 01°17' E 103°54'0 0.1
2016-Jun-04 10:14N 01°17' E 103°54'0 0.1
2016-Jun-04 09:30N 01°17' E 103°54'0 0.1
2016-Jun-04 08:33N 01°17' E 103°54'3 3.3
2016-Jun-04 07:33N 01°13' E 103°54'4 4.0
2016-Jun-04 06:30N 01°11' E 103°50'5 4.9
2016-Jun-04 05:33N 01°08' E 103°46'6711.2
2016-Jun-03 23:32N 01°39' E 102°46'1414.5
2016-Jun-03 22:33N 01°45' E 102°33'1613.9
2016-Jun-03 21:24N 01°51' E 102°19'2613.0
2016-Jun-03 19:23N 02°08' E 101°58'1412.1
2016-Jun-03 18:14N 02°17' E 101°48'  

Dump ship's entire track history